Time;durP1;ratioP1;P1;durP2;ratioP2;P2;SDS_P1;SDS_P2;PMS_P1;PMS_P2;Temp;Humidity;BMP_temperature;BMP_pressure;BME280_temperature;BME280_humidity;BME280_pressure;Samples;Min_cycle;Max_cycle;Signal;HPM_P1;HPM_P2
2022/07/25 00:01:37;;;;;;;6.65;4.72;;;;;;;;;;4938325;29;20046;-84
2022/07/25 00:04:02;;;;;;;9.07;4.40;;;;;;;;;;4944704;28;20039;-84
2022/07/25 00:06:27;;;;;;;8.30;4.45;;;;;;;;;;4946109;28;20559;-83
2022/07/25 00:08:53;;;;;;;9.15;4.60;;;;;;;;;;4944038;28;20039;-84
2022/07/25 00:11:18;;;;;;;7.47;4.43;;;;;;;;;;4938913;28;20035;-84
2022/07/25 00:13:43;;;;;;;10.57;4.85;;;;;;;;;;4949697;28;20537;-83
2022/07/25 00:16:09;;;;;;;7.13;4.43;;;;;;;;;;4948674;28;20054;-83
2022/07/25 00:18:34;;;;;;;8.82;4.90;;;;;;;;;;4948087;28;20106;-84
2022/07/25 00:20:59;;;;;;;7.10;4.40;;;;;;;;;;4947355;28;20035;-83
2022/07/25 00:23:25;;;;;;;10.60;4.78;;;;;;;;;;4945884;28;20043;-83
2022/07/25 00:25:50;;;;;;;11.50;4.70;;;;;;;;;;4948055;28;20507;-83
2022/07/25 00:28:16;;;;;;;7.55;4.70;;;;;;;;;;4946752;28;20131;-83
2022/07/25 00:30:41;;;;;;;7.30;4.90;;;;;;;;;;4946785;28;20071;-83
2022/07/25 00:33:06;;;;;;;7.22;4.57;;;;;;;;;;4947480;28;20051;-83
2022/07/25 00:35:32;;;;;;;8.13;5.18;;;;;;;;;;4945716;28;20444;-83
2022/07/25 00:37:57;;;;;;;8.88;4.88;;;;;;;;;;4943907;28;20024;-82
2022/07/25 00:40:22;;;;;;;9.52;5.38;;;;;;;;;;4950313;28;20039;-82
2022/07/25 00:42:48;;;;;;;7.80;5.00;;;;;;;;;;4951538;28;21625;-82
2022/07/25 00:45:13;;;;;;;12.90;5.00;;;;;;;;;;4949704;28;20062;-82
2022/07/25 00:47:39;;;;;;;8.23;4.78;;;;;;;;;;4950010;28;20419;-83
2022/07/25 00:50:04;;;;;;;7.15;4.65;;;;;;;;;;4968440;28;20027;-84
2022/07/25 00:52:30;;;;;;;8.00;4.80;;;;;;;;;;4949320;29;20410;-83
2022/07/25 00:54:55;;;;;;;7.20;4.63;;;;;;;;;;4950045;28;20047;-82
2022/07/25 00:57:21;;;;;;;9.10;5.18;;;;;;;;;;4948692;28;20474;-83
2022/07/25 00:59:47;;;;;;;8.52;4.72;;;;;;;;;;4949028;28;20109;-83
2022/07/25 01:02:12;;;;;;;6.72;4.75;;;;;;;;;;4953816;28;20055;-83
2022/07/25 01:04:38;;;;;;;10.13;4.53;;;;;;;;;;4949053;29;20039;-82
2022/07/25 01:07:04;;;;;;;8.10;5.32;;;;;;;;;;4949284;28;20039;-81
2022/07/25 01:09:30;;;;;;;6.78;4.60;;;;;;;;;;4948412;28;20050;-82
2022/07/25 01:11:55;;;;;;;7.35;4.70;;;;;;;;;;4949172;28;20043;-82
2022/07/25 01:14:21;;;;;;;8.88;5.10;;;;;;;;;;4948687;28;20023;-81
2022/07/25 01:16:46;;;;;;;6.93;4.88;;;;;;;;;;4949862;28;20082;-82
2022/07/25 01:19:12;;;;;;;6.60;4.50;;;;;;;;;;4950468;28;20039;-83
2022/07/25 01:21:39;;;;;;;7.72;4.95;;;;;;;;;;4949251;28;20418;-82
2022/07/25 01:24:05;;;;;;;7.05;4.68;;;;;;;;;;4948550;28;20135;-82
2022/07/25 01:26:31;;;;;;;7.25;4.43;;;;;;;;;;4946719;28;20098;-82
2022/07/25 01:28:56;;;;;;;6.88;4.45;;;;;;;;;;4941883;28;20043;-83
2022/07/25 01:31:22;;;;;;;7.97;4.38;;;;;;;;;;4960335;28;20405;-82
2022/07/25 01:33:47;;;;;;;7.90;4.70;;;;;;;;;;4948403;28;20046;-82
2022/07/25 01:36:13;;;;;;;7.70;4.07;;;;;;;;;;4946743;29;20618;-83
2022/07/25 01:38:38;;;;;;;9.18;4.65;;;;;;;;;;4958259;28;20695;-82
2022/07/25 01:41:04;;;;;;;7.70;4.80;;;;;;;;;;4947228;28;20039;-83
2022/07/25 01:43:29;;;;;;;7.10;4.60;;;;;;;;;;4949412;29;20753;-83
2022/07/25 01:45:54;;;;;;;7.25;4.72;;;;;;;;;;4947519;29;20047;-83
2022/07/25 01:48:20;;;;;;;6.13;4.40;;;;;;;;;;4948210;28;20051;-83
2022/07/25 01:50:45;;;;;;;6.93;4.50;;;;;;;;;;4948501;28;20122;-83
2022/07/25 01:53:10;;;;;;;6.22;4.38;;;;;;;;;;4945274;28;20027;-83
2022/07/25 01:55:36;;;;;;;7.80;4.50;;;;;;;;;;4947729;29;20042;-83
2022/07/25 01:58:01;;;;;;;9.20;4.60;;;;;;;;;;4949616;28;20055;-84
2022/07/25 02:00:27;;;;;;;7.70;4.70;;;;;;;;;;4947624;28;20135;-84
2022/07/25 02:03:28;;;;;;;7.72;4.55;;;;;;;;;;4964171;28;20054;-84
2022/07/25 02:05:38;;;;;;;8.18;4.70;;;;;;;;;;4948840;28;20526;-84
2022/07/25 02:08:03;;;;;;;6.90;4.05;;;;;;;;;;4949891;28;20041;-84
2022/07/25 02:10:28;;;;;;;10.75;4.88;;;;;;;;;;4945404;28;20040;-84
2022/07/25 02:12:54;;;;;;;7.80;4.85;;;;;;;;;;4948713;28;20039;-84
2022/07/25 02:15:19;;;;;;;7.25;4.60;;;;;;;;;;4949145;28;20036;-84
2022/07/25 02:17:44;;;;;;;9.13;5.45;;;;;;;;;;4946900;28;20090;-84
2022/07/25 02:20:10;;;;;;;7.32;4.60;;;;;;;;;;4946628;28;20067;-85
2022/07/25 02:22:35;;;;;;;7.70;5.15;;;;;;;;;;4947707;29;20566;-85
2022/07/25 02:25:01;;;;;;;7.65;4.93;;;;;;;;;;4949700;28;20048;-84
2022/07/25 02:27:26;;;;;;;9.38;5.32;;;;;;;;;;4941524;28;20047;-85
2022/07/25 02:29:51;;;;;;;8.40;5.00;;;;;;;;;;4949870;28;20049;-84
2022/07/25 02:32:17;;;;;;;9.48;5.20;;;;;;;;;;4947386;28;20057;-85
2022/07/25 02:34:43;;;;;;;8.50;5.20;;;;;;;;;;4951446;28;20026;-84
2022/07/25 02:37:08;;;;;;;9.77;5.20;;;;;;;;;;4955878;28;20035;-84
2022/07/25 02:39:33;;;;;;;7.40;4.95;;;;;;;;;;4949068;28;20118;-84
2022/07/25 02:41:59;;;;;;;9.25;4.35;;;;;;;;;;4946895;29;20478;-84
2022/07/25 02:44:24;;;;;;;7.45;4.45;;;;;;;;;;4946097;28;20046;-84
2022/07/25 02:46:49;;;;;;;7.85;4.63;;;;;;;;;;4950239;28;20035;-84
2022/07/25 02:49:15;;;;;;;8.48;5.43;;;;;;;;;;4949421;28;20050;-84
2022/07/25 02:51:40;;;;;;;9.63;5.10;;;;;;;;;;4947131;28;20062;-84
2022/07/25 02:54:05;;;;;;;7.45;4.60;;;;;;;;;;4969321;28;20081;-84
2022/07/25 02:56:32;;;;;;;9.32;4.88;;;;;;;;;;4946496;28;20035;-84
2022/07/25 02:58:58;;;;;;;7.03;4.55;;;;;;;;;;4947858;28;20038;-84
2022/07/25 03:01:23;;;;;;;10.55;5.38;;;;;;;;;;4946122;28;20043;-83
2022/07/25 03:03:48;;;;;;;8.15;4.75;;;;;;;;;;4962980;28;20146;-83
2022/07/25 03:06:14;;;;;;;7.32;4.85;;;;;;;;;;4947387;28;20126;-83
2022/07/25 03:08:39;;;;;;;11.48;5.15;;;;;;;;;;4945676;28;20043;-83
2022/07/25 03:11:05;;;;;;;7.75;5.20;;;;;;;;;;4946694;28;20032;-84
2022/07/25 03:13:31;;;;;;;9.20;5.22;;;;;;;;;;4948551;29;20641;-83
2022/07/25 03:15:57;;;;;;;10.10;5.07;;;;;;;;;;4949070;28;20097;-83
2022/07/25 03:18:23;;;;;;;8.15;5.25;;;;;;;;;;4944382;28;20039;-83
2022/07/25 03:20:48;;;;;;;9.32;5.05;;;;;;;;;;4945193;29;20039;-83
2022/07/25 03:23:13;;;;;;;8.13;5.38;;;;;;;;;;4947024;28;21385;-83
2022/07/25 03:25:39;;;;;;;8.57;5.00;;;;;;;;;;4946855;28;20027;-83
2022/07/25 03:28:04;;;;;;;9.85;5.40;;;;;;;;;;4945259;28;20047;-83
2022/07/25 03:30:29;;;;;;;7.53;5.07;;;;;;;;;;4947947;28;20118;-83
2022/07/25 03:32:55;;;;;;;11.05;5.20;;;;;;;;;;4945386;28;20541;-83
2022/07/25 03:35:20;;;;;;;9.65;5.55;;;;;;;;;;4945848;28;20687;-83
2022/07/25 03:37:46;;;;;;;8.55;5.35;;;;;;;;;;4950222;28;20117;-83
2022/07/25 03:40:12;;;;;;;8.65;5.13;;;;;;;;;;4963689;28;20130;-84
2022/07/25 03:42:37;;;;;;;8.63;4.68;;;;;;;;;;4946927;28;20121;-83
2022/07/25 03:45:03;;;;;;;7.45;4.60;;;;;;;;;;4947895;28;20039;-82
2022/07/25 03:47:29;;;;;;;8.32;5.00;;;;;;;;;;4949338;28;20042;-83
2022/07/25 03:49:54;;;;;;;9.63;4.70;;;;;;;;;;4970389;28;20015;-84
2022/07/25 03:52:19;;;;;;;8.43;4.88;;;;;;;;;;4970526;28;20055;-84
2022/07/25 03:54:45;;;;;;;5.95;4.35;;;;;;;;;;4952309;28;20047;-84
2022/07/25 03:57:11;;;;;;;6.07;4.18;;;;;;;;;;4948203;28;20031;-84
2022/07/25 03:59:36;;;;;;;12.20;5.13;;;;;;;;;;4949167;28;20044;-84
2022/07/25 04:02:02;;;;;;;7.93;4.47;;;;;;;;;;4946838;28;20480;-83
2022/07/25 04:04:27;;;;;;;11.57;5.15;;;;;;;;;;4962647;28;20155;-83
2022/07/25 04:06:53;;;;;;;7.20;4.60;;;;;;;;;;4946226;28;20106;-84
2022/07/25 04:09:18;;;;;;;7.40;4.30;;;;;;;;;;4944815;28;20092;-84
2022/07/25 04:11:43;;;;;;;7.15;4.32;;;;;;;;;;4943836;28;20039;-84
2022/07/25 04:14:09;;;;;;;7.70;4.53;;;;;;;;;;4949160;28;20037;-85
2022/07/25 04:16:34;;;;;;;8.68;4.32;;;;;;;;;;4951210;29;20031;-84
2022/07/25 04:19:00;;;;;;;8.05;4.18;;;;;;;;;;4949026;28;20498;-83
2022/07/25 04:21:25;;;;;;;7.30;4.30;;;;;;;;;;4960081;28;20051;-84
2022/07/25 04:23:51;;;;;;;9.32;4.40;;;;;;;;;;4947499;28;20043;-84
2022/07/25 04:26:18;;;;;;;9.27;4.43;;;;;;;;;;4950018;28;20069;-85
2022/07/25 04:28:43;;;;;;;7.25;4.10;;;;;;;;;;4951826;28;20757;-84
2022/07/25 04:31:08;;;;;;;6.57;4.05;;;;;;;;;;4948599;28;20039;-84
2022/07/25 04:33:38;;;;;;;7.82;4.30;;;;;;;;;;4948896;28;20050;-83
2022/07/25 04:36:04;;;;;;;6.85;4.13;;;;;;;;;;4950242;28;20118;-83
2022/07/25 04:38:29;;;;;;;7.85;4.22;;;;;;;;;;4951402;28;20098;-83
2022/07/25 04:40:55;;;;;;;13.55;4.10;;;;;;;;;;4966440;28;20042;-82
2022/07/25 04:43:20;;;;;;;7.45;3.85;;;;;;;;;;4947526;28;20039;-82
2022/07/25 04:45:46;;;;;;;5.75;3.75;;;;;;;;;;4950107;28;20529;-82
2022/07/25 04:48:11;;;;;;;6.13;3.33;;;;;;;;;;4948132;28;20086;-82
2022/07/25 04:50:37;;;;;;;6.18;3.50;;;;;;;;;;4949520;28;20126;-82
2022/07/25 04:53:03;;;;;;;5.60;3.15;;;;;;;;;;4964845;28;20045;-83
2022/07/25 04:55:28;;;;;;;6.53;2.90;;;;;;;;;;4948356;28;20117;-82
2022/07/25 04:57:53;;;;;;;6.82;3.00;;;;;;;;;;4946900;28;20466;-83
2022/07/25 05:00:19;;;;;;;4.07;2.95;;;;;;;;;;4946512;28;20578;-83
2022/07/25 05:02:44;;;;;;;5.00;3.10;;;;;;;;;;4950432;28;20043;-83
2022/07/25 05:05:09;;;;;;;5.65;3.22;;;;;;;;;;4949584;28;20027;-82
2022/07/25 05:07:35;;;;;;;6.10;3.53;;;;;;;;;;4949005;28;20031;-83
2022/07/25 05:10:01;;;;;;;9.00;3.67;;;;;;;;;;4949278;28;20039;-83
2022/07/25 05:12:26;;;;;;;6.30;3.08;;;;;;;;;;4948561;28;20039;-83
2022/07/25 05:14:53;;;;;;;6.13;3.10;;;;;;;;;;4951417;28;20054;-83
2022/07/25 05:17:19;;;;;;;6.30;3.10;;;;;;;;;;4947474;28;20113;-83
2022/07/25 05:19:45;;;;;;;5.47;3.58;;;;;;;;;;4948449;28;20164;-83
2022/07/25 05:22:10;;;;;;;9.80;3.40;;;;;;;;;;4949735;28;20630;-83
2022/07/25 05:24:36;;;;;;;6.68;3.17;;;;;;;;;;4963607;28;20051;-83
2022/07/25 05:27:03;;;;;;;5.30;3.17;;;;;;;;;;4948063;28;20050;-83
2022/07/25 05:29:29;;;;;;;5.15;3.03;;;;;;;;;;4943549;28;20032;-83
2022/07/25 05:31:54;;;;;;;5.57;3.25;;;;;;;;;;4945666;28;20714;-82
2022/07/25 05:34:19;;;;;;;4.88;2.42;;;;;;;;;;4948017;28;20031;-83
2022/07/25 05:36:45;;;;;;;6.07;2.42;;;;;;;;;;4949353;28;20031;-84
2022/07/25 05:39:10;;;;;;;4.32;2.30;;;;;;;;;;4949601;28;20066;-83
2022/07/25 05:41:36;;;;;;;6.65;2.40;;;;;;;;;;4966129;28;20039;-83
2022/07/25 05:44:01;;;;;;;4.32;2.50;;;;;;;;;;4949106;29;20047;-82
2022/07/25 05:46:27;;;;;;;7.68;2.30;;;;;;;;;;4949806;28;20175;-83
2022/07/25 05:48:52;;;;;;;4.78;2.28;;;;;;;;;;4947306;28;20114;-83
2022/07/25 05:51:17;;;;;;;5.03;1.95;;;;;;;;;;4961553;28;20043;-83
2022/07/25 05:53:43;;;;;;;3.55;1.77;;;;;;;;;;4949614;28;20166;-82
2022/07/25 05:56:08;;;;;;;3.88;1.73;;;;;;;;;;4951504;28;20699;-82
2022/07/25 05:58:36;;;;;;;6.25;1.65;;;;;;;;;;4948633;28;20030;-83
2022/07/25 06:01:01;;;;;;;3.55;1.60;;;;;;;;;;4949046;28;20039;-81
2022/07/25 06:03:26;;;;;;;3.60;1.75;;;;;;;;;;4948304;28;20038;-81
2022/07/25 06:05:54;;;;;;;6.25;2.00;;;;;;;;;;4948724;28;20049;-82
2022/07/25 06:08:19;;;;;;;6.82;2.08;;;;;;;;;;4945478;28;20576;-81
2022/07/25 06:10:45;;;;;;;4.35;1.88;;;;;;;;;;4950695;28;20024;-83
2022/07/25 06:13:10;;;;;;;6.30;1.60;;;;;;;;;;4949900;28;20126;-81
2022/07/25 06:15:36;;;;;;;4.90;1.80;;;;;;;;;;4951061;28;20043;-81
2022/07/25 06:18:01;;;;;;;3.30;1.40;;;;;;;;;;4950557;28;20035;-81
2022/07/25 06:20:26;;;;;;;5.95;1.90;;;;;;;;;;4951239;28;20042;-81
2022/07/25 06:22:52;;;;;;;6.60;1.65;;;;;;;;;;4948005;28;20035;-81
2022/07/25 06:25:17;;;;;;;5.65;2.22;;;;;;;;;;4947759;28;20049;-81
2022/07/25 06:27:43;;;;;;;5.18;1.90;;;;;;;;;;4949211;28;20039;-81
2022/07/25 06:30:09;;;;;;;5.43;1.98;;;;;;;;;;4964055;28;20028;-82
2022/07/25 06:32:34;;;;;;;5.25;1.90;;;;;;;;;;4961612;28;20038;-82
2022/07/25 06:35:00;;;;;;;4.13;1.80;;;;;;;;;;4962997;28;20019;-82
2022/07/25 06:37:26;;;;;;;4.63;2.05;;;;;;;;;;4964760;28;20135;-81
2022/07/25 06:39:51;;;;;;;4.90;1.95;;;;;;;;;;4942360;28;20047;-81
2022/07/25 06:42:16;;;;;;;5.90;2.05;;;;;;;;;;4943804;28;20067;-81
2022/07/25 06:44:42;;;;;;;3.70;1.85;;;;;;;;;;4944785;28;20170;-83
2022/07/25 06:47:11;;;;;;;4.93;1.90;;;;;;;;;;4945794;28;20035;-81
2022/07/25 06:49:37;;;;;;;3.55;2.10;;;;;;;;;;4940999;28;20038;-83
2022/07/25 06:52:03;;;;;;;5.63;2.40;;;;;;;;;;4940631;28;20053;-82
2022/07/25 06:54:28;;;;;;;3.67;2.00;;;;;;;;;;4940802;28;20475;-82
2022/07/25 06:56:54;;;;;;;6.00;2.05;;;;;;;;;;4941057;28;20043;-82
2022/07/25 06:59:19;;;;;;;6.68;2.35;;;;;;;;;;4938511;28;20090;-84
2022/07/25 07:01:44;;;;;;;7.07;2.10;;;;;;;;;;4941095;28;20170;-82
2022/07/25 07:04:10;;;;;;;4.85;2.30;;;;;;;;;;4941630;28;20034;-82
2022/07/25 07:06:36;;;;;;;4.15;2.40;;;;;;;;;;4955232;28;20439;-82
2022/07/25 07:09:02;;;;;;;6.63;2.10;;;;;;;;;;4939455;28;20494;-83
2022/07/25 07:11:27;;;;;;;9.10;2.45;;;;;;;;;;4941774;28;20042;-83
2022/07/25 07:13:52;;;;;;;5.10;2.30;;;;;;;;;;4935855;29;20031;-81
2022/07/25 07:16:18;;;;;;;10.35;2.67;;;;;;;;;;4939080;28;20034;-81
2022/07/25 07:18:43;;;;;;;5.13;2.67;;;;;;;;;;4940256;28;20039;-81
2022/07/25 07:21:09;;;;;;;8.18;3.65;;;;;;;;;;4959285;28;21350;-81
2022/07/25 07:23:34;;;;;;;8.05;2.60;;;;;;;;;;4958790;28;20162;-84
2022/07/25 07:26:00;;;;;;;6.75;2.88;;;;;;;;;;4945369;28;20690;-82
2022/07/25 07:28:25;;;;;;;3.60;2.35;;;;;;;;;;4949933;28;20030;-80
2022/07/25 07:30:51;;;;;;;5.88;2.40;;;;;;;;;;4950475;28;20042;-80
2022/07/25 07:33:16;;;;;;;4.40;2.20;;;;;;;;;;4941487;28;20467;-81
2022/07/25 07:35:44;;;;;;;5.30;2.30;;;;;;;;;;4941677;28;20046;-82
2022/07/25 07:38:10;;;;;;;6.07;2.30;;;;;;;;;;4954826;28;20043;-82
2022/07/25 07:40:36;;;;;;;4.53;2.38;;;;;;;;;;4945964;28;20134;-80
2022/07/25 07:43:02;;;;;;;8.05;2.20;;;;;;;;;;4956845;28;20130;-81
2022/07/25 07:45:29;;;;;;;1.83;1.65;;;;;;;;;;4943707;28;20035;-83
2022/07/25 07:47:55;;;;;;;7.43;1.98;;;;;;;;;;4944334;28;20039;-84
2022/07/25 07:50:24;;;;;;;4.07;2.38;;;;;;;;;;4950341;28;20428;-82
2022/07/25 07:52:52;;;;;;;3.65;2.15;;;;;;;;;;4938877;28;20020;-83
2022/07/25 07:58:03;;;;;;;5.13;2.75;;;;;;;;;;4947813;28;20050;-81
2022/07/25 08:00:35;;;;;;;4.30;2.30;;;;;;;;;;4945811;28;20031;-81
2022/07/25 08:03:01;;;;;;;8.95;2.80;;;;;;;;;;4945977;28;20130;-83
2022/07/25 08:05:29;;;;;;;5.93;3.70;;;;;;;;;;4948551;28;20031;-82
2022/07/25 08:07:55;;;;;;;7.53;3.00;;;;;;;;;;4974266;28;20023;-84
2022/07/25 08:10:24;;;;;;;4.82;3.08;;;;;;;;;;4962731;28;20023;-81
2022/07/25 08:12:49;;;;;;;14.73;2.45;;;;;;;;;;4947823;28;20537;-82
2022/07/25 08:15:16;;;;;;;5.78;2.40;;;;;;;;;;4942016;28;20031;-81
2022/07/25 08:17:42;;;;;;;9.23;2.13;;;;;;;;;;4945817;28;20526;-82
2022/07/25 08:20:08;;;;;;;3.05;2.17;;;;;;;;;;4945842;28;20059;-82
2022/07/25 08:22:42;;;;;;;3.25;2.40;;;;;;;;;;4945407;28;20050;-86
2022/07/25 08:25:09;;;;;;;4.30;2.00;;;;;;;;;;4944806;28;20039;-84
2022/07/25 08:27:35;;;;;;;6.35;2.20;;;;;;;;;;4943389;28;20138;-87
2022/07/25 08:30:04;;;;;;;2.90;2.00;;;;;;;;;;4942872;28;20473;-85
2022/07/25 08:32:29;;;;;;;3.72;1.90;;;;;;;;;;4941534;28;20062;-85
2022/07/25 08:34:55;;;;;;;4.30;2.03;;;;;;;;;;4943152;28;20031;-83
2022/07/25 08:37:21;;;;;;;7.68;1.70;;;;;;;;;;4958253;28;20047;-83
2022/07/25 08:39:47;;;;;;;4.03;1.60;;;;;;;;;;4944484;28;20044;-87
2022/07/25 08:42:12;;;;;;;1.83;1.30;;;;;;;;;;4947494;28;20039;-82
2022/07/25 08:44:42;;;;;;;3.08;1.50;;;;;;;;;;4941663;28;20043;-82
2022/07/25 08:47:09;;;;;;;4.25;1.63;;;;;;;;;;4953745;28;20042;-84
2022/07/25 08:49:35;;;;;;;3.10;1.73;;;;;;;;;;4941977;28;20061;-84
2022/07/25 08:52:02;;;;;;;6.93;1.85;;;;;;;;;;4944737;28;20122;-87
2022/07/25 08:54:29;;;;;;;3.72;1.70;;;;;;;;;;4953970;28;20631;-86
2022/07/25 08:56:54;;;;;;;2.92;1.45;;;;;;;;;;4947047;28;20051;-88
2022/07/25 08:59:20;;;;;;;1.95;1.30;;;;;;;;;;4937519;28;20779;-86
2022/07/25 09:01:45;;;;;;;3.58;1.70;;;;;;;;;;4933167;28;20030;-84
2022/07/25 09:04:12;;;;;;;4.93;1.70;;;;;;;;;;4932716;28;20507;-86
2022/07/25 09:06:48;;;;;;;6.82;1.75;;;;;;;;;;4942884;28;20031;-86
2022/07/25 09:09:13;;;;;;;4.00;1.60;;;;;;;;;;4935930;28;21325;-84
2022/07/25 09:11:39;;;;;;;3.88;1.50;;;;;;;;;;4938907;28;20074;-83
2022/07/25 09:14:10;;;;;;;4.13;1.60;;;;;;;;;;4948832;28;20051;-85
2022/07/25 09:16:38;;;;;;;5.55;1.88;;;;;;;;;;4943351;28;20094;-85
2022/07/25 09:19:15;;;;;;;3.55;1.90;;;;;;;;;;4941686;28;20039;-84
2022/07/25 09:21:43;;;;;;;2.13;1.60;;;;;;;;;;4953744;28;20067;-86
2022/07/25 09:24:15;;;;;;;3.80;1.95;;;;;;;;;;4941210;28;20485;-86
2022/07/25 09:26:49;;;;;;;5.20;1.88;;;;;;;;;;4944885;29;20028;-82
2022/07/25 09:29:25;;;;;;;5.43;2.00;;;;;;;;;;4943203;29;20035;-85
2022/07/25 09:31:52;;;;;;;7.63;4.28;;;;;;;;;;4944612;28;20042;-83
2022/07/25 09:34:33;;;;;;;4.28;2.17;;;;;;;;;;4946714;28;20043;-89
2022/07/25 09:37:03;;;;;;;7.20;1.98;;;;;;;;;;4948300;28;20065;-85
2022/07/25 09:39:39;;;;;;;6.05;2.05;;;;;;;;;;4958823;28;20190;-86
2022/07/25 09:42:27;;;;;;;4.65;2.03;;;;;;;;;;4942785;28;20058;-85
2022/07/25 09:44:57;;;;;;;6.82;3.55;;;;;;;;;;4951433;28;20081;-90
2022/07/25 09:47:23;;;;;;;4.55;2.10;;;;;;;;;;4944497;28;20039;-87
2022/07/25 09:49:48;;;;;;;4.82;2.20;;;;;;;;;;4947082;28;20042;-84
2022/07/25 09:52:15;;;;;;;4.22;1.77;;;;;;;;;;4947941;28;20038;-86
2022/07/25 09:54:40;;;;;;;6.72;1.95;;;;;;;;;;4945600;28;20515;-85
2022/07/25 09:57:06;;;;;;;4.80;2.00;;;;;;;;;;4945855;28;20190;-89
2022/07/25 09:59:33;;;;;;;3.47;2.10;;;;;;;;;;4946452;28;20043;-86
2022/07/25 10:02:29;;;;;;;3.13;1.92;;;;;;;;;;4955973;28;20038;-84
2022/07/25 10:05:19;;;;;;;2.95;1.98;;;;;;;;;;4958544;28;20113;-82
2022/07/25 10:07:48;;;;;;;4.68;2.00;;;;;;;;;;4958929;28;20027;-83
2022/07/25 10:10:28;;;;;;;6.43;1.90;;;;;;;;;;4943363;28;20023;-84
2022/07/25 10:13:06;;;;;;;3.67;1.90;;;;;;;;;;4944462;28;20043;-85
2022/07/25 10:15:51;;;;;;;4.47;1.90;;;;;;;;;;4956385;28;20082;-81
2022/07/25 10:18:19;;;;;;;5.57;2.60;;;;;;;;;;4946781;28;20051;-81
2022/07/25 10:20:47;;;;;;;4.05;1.85;;;;;;;;;;4946109;28;20031;-81
2022/07/25 10:23:30;;;;;;;2.50;1.65;;;;;;;;;;4941141;28;20051;-85
2022/07/25 10:25:59;;;;;;;6.97;2.10;;;;;;;;;;4959567;28;20524;-81
2022/07/25 10:28:35;;;;;;;4.78;1.67;;;;;;;;;;4943652;28;20020;-80
2022/07/25 10:31:00;;;;;;;4.78;2.17;;;;;;;;;;4953607;28;20126;-83
2022/07/25 10:33:26;;;;;;;10.30;2.08;;;;;;;;;;4939872;28;20034;-81
2022/07/25 10:35:51;;;;;;;3.67;1.73;;;;;;;;;;4955559;28;20059;-81
2022/07/25 10:38:24;;;;;;;3.65;1.88;;;;;;;;;;4942253;28;20035;-81
2022/07/25 10:40:49;;;;;;;3.45;1.90;;;;;;;;;;4947016;28;20027;-82
2022/07/25 10:43:24;;;;;;;5.57;1.95;;;;;;;;;;4944657;28;20054;-83
2022/07/25 10:45:56;;;;;;;7.60;1.90;;;;;;;;;;4942069;28;20062;-81
2022/07/25 10:48:24;;;;;;;4.25;2.17;;;;;;;;;;4941159;28;20115;-87
2022/07/25 10:50:51;;;;;;;6.40;2.17;;;;;;;;;;4943896;29;20063;-83
2022/07/25 10:53:47;;;;;;;3.63;1.90;;;;;;;;;;4940227;28;20043;-86
2022/07/25 10:56:14;;;;;;;5.35;1.80;;;;;;;;;;4944601;28;20042;-80
2022/07/25 10:58:46;;;;;;;4.07;2.17;;;;;;;;;;4943876;29;20458;-81
2022/07/25 11:01:15;;;;;;;4.03;1.83;;;;;;;;;;4943076;29;20046;-82
2022/07/25 11:03:43;;;;;;;5.40;1.80;;;;;;;;;;4935502;28;20047;-80
2022/07/25 11:06:13;;;;;;;4.00;1.90;;;;;;;;;;4939089;28;20415;-81
2022/07/25 11:08:39;;;;;;;5.55;2.40;;;;;;;;;;4941827;28;20043;-82
2022/07/25 11:11:05;;;;;;;7.68;2.10;;;;;;;;;;4954691;28;20511;-85
2022/07/25 11:13:37;;;;;;;5.82;2.22;;;;;;;;;;4957518;28;20068;-81
2022/07/25 11:16:02;;;;;;;3.55;1.60;;;;;;;;;;4941304;28;20500;-82
2022/07/25 11:18:36;;;;;;;6.95;2.03;;;;;;;;;;4939210;28;20159;-80
2022/07/25 11:21:03;;;;;;;8.27;2.05;;;;;;;;;;4937807;28;20044;-81
2022/07/25 11:23:29;;;;;;;7.88;2.42;;;;;;;;;;4955317;28;20051;-81
2022/07/25 11:26:08;;;;;;;5.85;2.30;;;;;;;;;;4944001;28;20553;-83
2022/07/25 11:28:38;;;;;;;3.58;2.17;;;;;;;;;;4958082;28;20046;-81
2022/07/25 11:31:04;;;;;;;6.10;2.20;;;;;;;;;;4937511;28;20047;-81
2022/07/25 11:33:30;;;;;;;4.07;1.95;;;;;;;;;;4943739;28;20071;-81
2022/07/25 11:35:58;;;;;;;4.55;2.00;;;;;;;;;;4943991;28;20065;-81
2022/07/25 11:38:24;;;;;;;5.15;2.05;;;;;;;;;;4942609;28;20048;-81
2022/07/25 11:40:50;;;;;;;4.25;2.10;;;;;;;;;;4955394;28;20039;-85
2022/07/25 11:43:22;;;;;;;6.93;2.17;;;;;;;;;;4942157;28;20043;-86
2022/07/25 11:45:58;;;;;;;5.65;1.92;;;;;;;;;;4943796;28;20047;-81
2022/07/25 11:48:36;;;;;;;3.88;2.08;;;;;;;;;;4944393;28;20047;-88
2022/07/25 11:51:35;;;;;;;5.90;1.83;;;;;;;;;;4945641;28;20042;-88
2022/07/25 11:54:07;;;;;;;9.43;2.67;;;;;;;;;;4940316;28;20168;-84
2022/07/25 11:56:37;;;;;;;3.40;1.80;;;;;;;;;;4948847;28;20166;-82
2022/07/25 11:59:03;;;;;;;2.28;1.75;;;;;;;;;;4941476;28;20047;-85
2022/07/25 12:01:37;;;;;;;4.85;2.20;;;;;;;;;;4941558;28;20035;-81
2022/07/25 12:04:19;;;;;;;4.18;2.08;;;;;;;;;;4942923;29;20151;-84
2022/07/25 12:06:46;;;;;;;5.03;2.03;;;;;;;;;;4941847;28;20067;-89
2022/07/25 12:09:20;;;;;;;4.25;2.00;;;;;;;;;;4938903;28;20861;-83
2022/07/25 12:11:47;;;;;;;4.72;2.10;;;;;;;;;;4958899;28;20035;-86
2022/07/25 12:14:15;;;;;;;4.97;2.17;;;;;;;;;;4945284;28;20050;-88
2022/07/25 12:16:41;;;;;;;3.80;2.25;;;;;;;;;;4943286;29;20629;-89
2022/07/25 12:19:18;;;;;;;7.25;2.30;;;;;;;;;;4946873;28;20102;-82
2022/07/25 12:21:44;;;;;;;5.60;2.10;;;;;;;;;;4958956;28;20132;-87
2022/07/25 12:24:09;;;;;;;4.75;2.25;;;;;;;;;;4954712;28;20043;-84
2022/07/25 12:26:35;;;;;;;3.08;1.85;;;;;;;;;;4934099;28;20075;-83
2022/07/25 12:29:00;;;;;;;4.30;1.92;;;;;;;;;;4940009;28;20035;-90
2022/07/25 12:31:27;;;;;;;6.80;1.65;;;;;;;;;;4941337;28;20028;-86
2022/07/25 12:33:53;;;;;;;3.00;1.63;;;;;;;;;;4936816;28;20035;-87
2022/07/25 12:36:19;;;;;;;6.47;1.60;;;;;;;;;;4941026;28;20576;-84
2022/07/25 12:38:44;;;;;;;4.38;1.50;;;;;;;;;;4943245;28;20058;-85
2022/07/25 12:41:10;;;;;;;6.20;1.80;;;;;;;;;;4938092;28;20109;-84
2022/07/25 12:43:35;;;;;;;16.30;2.30;;;;;;;;;;4936625;28;20047;-85
2022/07/25 12:46:01;;;;;;;6.55;1.52;;;;;;;;;;4944861;28;20051;-87
2022/07/25 12:48:26;;;;;;;11.40;2.28;;;;;;;;;;4942505;28;20051;-86
2022/07/25 12:50:52;;;;;;;5.97;1.75;;;;;;;;;;4946360;28;20045;-90
2022/07/25 12:53:17;;;;;;;7.22;3.08;;;;;;;;;;4947812;28;20102;-89
2022/07/25 12:55:42;;;;;;;8.73;2.17;;;;;;;;;;4942777;28;20574;-84
2022/07/25 12:58:08;;;;;;;20.40;2.92;;;;;;;;;;4947454;28;20082;-87
2022/07/25 13:00:34;;;;;;;5.10;1.75;;;;;;;;;;4961394;28;20630;-85
2022/07/25 13:02:59;;;;;;;6.72;1.77;;;;;;;;;;4944007;28;20040;-86
2022/07/25 13:05:25;;;;;;;12.02;1.90;;;;;;;;;;4944186;28;20039;-87
2022/07/25 13:07:53;;;;;;;7.15;2.03;;;;;;;;;;4948273;28;20506;-83
2022/07/25 13:10:19;;;;;;;3.70;1.55;;;;;;;;;;4946778;28;20039;-86
2022/07/25 13:12:45;;;;;;;8.25;1.70;;;;;;;;;;4947827;28;20106;-88
2022/07/25 13:15:10;;;;;;;14.40;1.98;;;;;;;;;;4948851;28;20039;-84
2022/07/25 13:17:36;;;;;;;4.55;1.63;;;;;;;;;;4949126;28;20039;-87
2022/07/25 13:20:02;;;;;;;2.63;1.42;;;;;;;;;;4960744;28;20067;-87
2022/07/25 13:22:28;;;;;;;16.20;2.50;;;;;;;;;;4948985;28;20027;-85
2022/07/25 13:24:53;;;;;;;9.63;1.40;;;;;;;;;;4945851;28;20114;-88
2022/07/25 13:27:20;;;;;;;4.00;1.30;;;;;;;;;;4940443;28;20454;-85
2022/07/25 13:29:46;;;;;;;5.00;1.20;;;;;;;;;;4945858;28;20050;-88
2022/07/25 13:32:12;;;;;;;16.65;1.50;;;;;;;;;;4943860;28;20050;-83
2022/07/25 13:34:38;;;;;;;3.72;1.38;;;;;;;;;;4943797;28;20035;-87
2022/07/25 13:37:04;;;;;;;4.07;1.20;;;;;;;;;;4945771;28;20452;-83
2022/07/25 13:39:29;;;;;;;6.25;1.38;;;;;;;;;;4940877;28;20388;-85
2022/07/25 13:41:55;;;;;;;3.67;1.23;;;;;;;;;;4940577;28;20126;-90
2022/07/25 13:44:20;;;;;;;4.55;1.20;;;;;;;;;;4942420;28;20043;-85
2022/07/25 13:46:49;;;;;;;2.47;1.05;;;;;;;;;;4943855;28;20044;-87
2022/07/25 13:49:15;;;;;;;2.53;1.10;;;;;;;;;;4959301;28;20054;-87
2022/07/25 13:51:41;;;;;;;3.70;0.90;;;;;;;;;;4940454;29;20657;-86
2022/07/25 13:54:06;;;;;;;8.45;1.52;;;;;;;;;;4940931;28;20035;-86
2022/07/25 13:56:32;;;;;;;3.70;0.93;;;;;;;;;;4944510;28;20486;-87
2022/07/25 13:58:58;;;;;;;2.38;1.20;;;;;;;;;;4941783;28;20148;-89
2022/07/25 14:01:26;;;;;;;8.52;1.33;;;;;;;;;;4943074;28;20106;-89
2022/07/25 14:03:51;;;;;;;1.02;0.90;;;;;;;;;;4939385;28;20031;-82
2022/07/25 14:06:17;;;;;;;1.90;0.98;;;;;;;;;;4946444;28;20039;-87
2022/07/25 14:08:42;;;;;;;5.25;1.33;;;;;;;;;;4942026;28;20109;-83
2022/07/25 14:11:08;;;;;;;11.23;1.30;;;;;;;;;;4942339;28;20070;-84
2022/07/25 14:13:34;;;;;;;13.65;1.38;;;;;;;;;;4955032;28;20031;-86
2022/07/25 14:15:59;;;;;;;11.77;1.40;;;;;;;;;;4956865;28;20083;-84
2022/07/25 14:18:25;;;;;;;7.20;1.15;;;;;;;;;;4971677;28;20589;-85
2022/07/25 14:20:50;;;;;;;12.68;1.52;;;;;;;;;;4973164;28;20054;-86
2022/07/25 14:23:16;;;;;;;3.42;1.00;;;;;;;;;;4939871;28;20125;-82
2022/07/25 14:25:44;;;;;;;18.58;1.48;;;;;;;;;;4943421;29;20450;-86
2022/07/25 14:28:09;;;;;;;10.60;1.35;;;;;;;;;;4940481;28;20042;-88
2022/07/25 14:30:34;;;;;;;4.90;1.08;;;;;;;;;;4943899;28;20027;-84
2022/07/25 14:33:00;;;;;;;6.60;1.25;;;;;;;;;;4943796;28;20043;-84
2022/07/25 14:35:25;;;;;;;3.30;1.25;;;;;;;;;;4942552;28;20050;-86
2022/07/25 14:37:51;;;;;;;3.75;1.20;;;;;;;;;;4941445;28;20023;-87
2022/07/25 14:40:16;;;;;;;4.07;1.27;;;;;;;;;;4935134;28;20039;-84
2022/07/25 14:42:43;;;;;;;5.60;1.45;;;;;;;;;;4956093;28;20050;-89
2022/07/25 14:45:09;;;;;;;4.90;0.98;;;;;;;;;;4954580;28;20055;-84